Time;durP1;ratioP1;P1;durP2;ratioP2;P2;SDS_P1;SDS_P2;PMS_P1;PMS_P2;Temp;Humidity;BMP_temperature;BMP_pressure;BME280_temperature;BME280_humidity;BME280_pressure;Samples;Min_cycle;Max_cycle;Signal;HPM_P1;HPM_P2
2021/11/17 02:27:49;;;;;;;65.60;21.77;;;;;;;;;;5022542;28;20680;-73
2021/11/17 02:30:52;;;;;;;69.93;23.43;;;;;;;;;;5012197;28;20217;-72
2021/11/17 02:33:46;;;;;;;72.17;23.53;;;;;;;;;;5016808;28;20495;-72
2021/11/17 02:36:23;;;;;;;72.03;23.13;;;;;;;;;;5011557;28;20581;-73
2021/11/17 02:38:48;;;;;;;77.77;23.63;;;;;;;;;;4997915;28;20728;-73
2021/11/17 02:41:49;;;;;;;76.87;24.20;;;;;;;;;;5021994;28;20329;-72
2021/11/17 02:44:49;;;;;;;73.30;24.20;;;;;;;;;;5030826;28;20213;-72
2021/11/17 02:47:47;;;;;;;67.97;22.63;;;;;;;;;;5018182;28;20228;-73
2021/11/17 02:50:31;;;;;;;68.27;23.20;;;;;;;;;;5035710;28;20284;-72
2021/11/17 02:52:59;;;;;;;68.47;21.77;;;;;;;;;;5026776;28;20220;-72
2021/11/17 02:55:59;;;;;;;64.93;22.50;;;;;;;;;;5018975;28;20214;-72
2021/11/17 02:59:06;;;;;;;69.23;23.70;;;;;;;;;;5019523;28;20668;-73
2021/11/17 03:01:43;;;;;;;80.83;24.40;;;;;;;;;;5013319;28;20253;-72
2021/11/17 03:04:22;;;;;;;71.80;23.27;;;;;;;;;;5016349;28;20231;-72
2021/11/17 03:07:09;;;;;;;70.63;23.97;;;;;;;;;;5017564;28;20453;-72
2021/11/17 03:09:59;;;;;;;73.83;24.43;;;;;;;;;;5023957;28;20529;-73
2021/11/17 03:12:42;;;;;;;74.50;25.13;;;;;;;;;;5015099;28;20546;-72
2021/11/17 03:15:26;;;;;;;70.63;24.73;;;;;;;;;;5022188;28;20182;-72
2021/11/17 03:18:10;;;;;;;69.77;24.17;;;;;;;;;;5017246;28;20194;-72
2021/11/17 03:20:57;;;;;;;62.63;22.27;;;;;;;;;;5023340;28;20676;-72
2021/11/17 03:23:59;;;;;;;69.53;25.37;;;;;;;;;;5022270;28;20222;-73
2021/11/17 03:26:28;;;;;;;67.27;24.00;;;;;;;;;;5017163;28;20561;-72
2021/11/17 03:29:08;;;;;;;55.90;21.93;;;;;;;;;;5028005;28;20705;-73
2021/11/17 03:32:14;;;;;;;64.30;22.60;;;;;;;;;;5019490;28;20735;-73
2021/11/17 03:34:58;;;;;;;66.53;23.80;;;;;;;;;;5023928;28;20214;-73
2021/11/17 03:37:41;;;;;;;62.23;22.53;;;;;;;;;;5019982;28;20186;-73
2021/11/17 03:40:17;;;;;;;61.40;22.60;;;;;;;;;;5022509;28;20197;-73
2021/11/17 03:42:49;;;;;;;61.03;22.30;;;;;;;;;;5010975;28;20274;-73
2021/11/17 03:45:36;;;;;;;67.90;23.67;;;;;;;;;;5020311;28;20194;-73
2021/11/17 03:48:50;;;;;;;66.73;23.20;;;;;;;;;;5014541;28;20279;-74
2021/11/17 03:51:30;;;;;;;59.90;22.33;;;;;;;;;;5025689;28;20206;-72
2021/11/17 03:54:24;;;;;;;59.33;21.23;;;;;;;;;;5016608;28;20202;-72
2021/11/17 03:57:04;;;;;;;61.73;22.37;;;;;;;;;;5020794;28;20238;-72
2021/11/17 04:00:00;;;;;;;62.50;22.77;;;;;;;;;;5017594;28;20642;-72
2021/11/17 04:02:44;;;;;;;59.93;20.90;;;;;;;;;;5021760;28;20309;-72
2021/11/17 04:05:34;;;;;;;62.17;22.70;;;;;;;;;;5012543;28;20643;-71
2021/11/17 04:08:00;;;;;;;59.53;21.67;;;;;;;;;;5016381;28;20285;-72
2021/11/17 04:10:46;;;;;;;63.40;22.87;;;;;;;;;;5017154;28;20328;-72
2021/11/17 04:13:21;;;;;;;55.13;21.73;;;;;;;;;;5018885;28;20214;-72
2021/11/17 04:16:08;;;;;;;60.80;22.03;;;;;;;;;;5013651;28;20240;-73
2021/11/17 04:19:10;;;;;;;57.17;20.83;;;;;;;;;;5025250;28;20181;-72
2021/11/17 04:21:49;;;;;;;58.07;21.17;;;;;;;;;;5021485;28;20318;-72
2021/11/17 04:24:18;;;;;;;61.37;22.33;;;;;;;;;;5015027;28;20182;-72
2021/11/17 04:27:05;;;;;;;61.57;22.90;;;;;;;;;;5024642;28;20251;-73
2021/11/17 04:29:49;;;;;;;62.80;23.63;;;;;;;;;;5014395;28;20210;-72
2021/11/17 04:32:58;;;;;;;60.63;21.83;;;;;;;;;;5025139;28;20213;-72
2021/11/17 04:35:48;;;;;;;60.70;22.73;;;;;;;;;;5014194;28;20209;-74
2021/11/17 04:38:51;;;;;;;68.30;24.07;;;;;;;;;;5025822;28;20182;-73
2021/11/17 04:41:26;;;;;;;62.47;23.07;;;;;;;;;;5015636;28;20181;-73
2021/11/17 04:44:06;;;;;;;62.90;22.73;;;;;;;;;;5018208;28;20293;-73
2021/11/17 04:46:52;;;;;;;63.27;21.70;;;;;;;;;;5013375;28;20200;-73
2021/11/17 04:49:39;;;;;;;61.87;22.37;;;;;;;;;;5002071;28;20275;-73
2021/11/17 04:52:33;;;;;;;67.60;24.60;;;;;;;;;;5011946;28;20218;-73
2021/11/17 04:55:27;;;;;;;63.00;23.97;;;;;;;;;;5022353;28;20256;-73
2021/11/17 04:58:11;;;;;;;66.33;25.03;;;;;;;;;;5015375;28;20197;-72
2021/11/17 05:00:54;;;;;;;67.17;25.97;;;;;;;;;;5020190;28;20538;-73
2021/11/17 05:03:22;;;;;;;70.80;25.20;;;;;;;;;;5013190;28;20194;-73
2021/11/17 05:05:59;;;;;;;68.33;26.20;;;;;;;;;;5018107;28;20673;-73
2021/11/17 05:08:51;;;;;;;60.37;22.70;;;;;;;;;;5011182;28;20285;-73
2021/11/17 05:11:56;;;;;;;62.53;24.90;;;;;;;;;;5009945;28;20650;-73
2021/11/17 05:14:35;;;;;;;69.33;27.07;;;;;;;;;;5020141;28;20186;-73
2021/11/17 05:17:24;;;;;;;69.27;28.37;;;;;;;;;;5010833;28;20267;-73
2021/11/17 05:19:56;;;;;;;63.47;25.23;;;;;;;;;;5014941;28;20190;-73
2021/11/17 05:22:58;;;;;;;65.43;26.27;;;;;;;;;;5009608;28;20324;-73
2021/11/17 05:25:45;;;;;;;70.20;27.57;;;;;;;;;;5016828;28;20244;-74
2021/11/17 05:28:33;;;;;;;73.70;27.47;;;;;;;;;;5011945;28;20198;-73
2021/11/17 05:31:14;;;;;;;76.10;27.13;;;;;;;;;;5019365;28;20229;-73
2021/11/17 05:33:43;;;;;;;69.33;26.90;;;;;;;;;;4995816;28;20833;-73
2021/11/17 05:36:32;;;;;;;65.30;27.03;;;;;;;;;;5017574;28;20288;-73
2021/11/17 05:39:28;;;;;;;65.37;24.97;;;;;;;;;;5013714;28;20341;-73
2021/11/17 05:42:22;;;;;;;66.37;27.47;;;;;;;;;;5018949;28;20201;-73
2021/11/17 05:45:12;;;;;;;68.30;26.17;;;;;;;;;;5007580;28;20221;-73
2021/11/17 05:48:08;;;;;;;72.10;27.57;;;;;;;;;;5014028;28;20182;-74
2021/11/17 05:50:49;;;;;;;68.90;26.53;;;;;;;;;;5006100;28;20224;-74
2021/11/17 05:53:31;;;;;;;75.87;27.87;;;;;;;;;;5012765;28;20186;-73
2021/11/17 05:56:25;;;;;;;67.70;27.10;;;;;;;;;;5020261;28;20221;-73
2021/11/17 05:59:07;;;;;;;59.80;24.97;;;;;;;;;;5013647;28;20650;-73
2021/11/17 06:01:46;;;;;;;66.93;25.47;;;;;;;;;;5038949;28;20179;-73
2021/11/17 06:04:12;;;;;;;60.27;25.37;;;;;;;;;;5003261;28;21029;-73
2021/11/17 06:06:38;;;;;;;69.23;26.47;;;;;;;;;;5023063;28;20237;-73
2021/11/17 06:09:06;;;;;;;67.10;25.67;;;;;;;;;;5021254;28;20186;-72
2021/11/17 06:11:48;;;;;;;66.30;26.50;;;;;;;;;;5013502;28;20240;-73
2021/11/17 06:14:18;;;;;;;62.73;25.20;;;;;;;;;;5013718;28;20286;-73
2021/11/17 06:16:49;;;;;;;64.50;24.37;;;;;;;;;;4316481;28;10000804;-73
2021/11/17 06:19:17;;;;;;;58.90;24.03;;;;;;;;;;5016965;28;20644;-72
2021/11/17 06:21:43;;;;;;;63.70;24.73;;;;;;;;;;5008913;28;20186;-72
2021/11/17 06:24:12;;;;;;;64.77;25.93;;;;;;;;;;5013532;28;20197;-72
2021/11/17 06:26:40;;;;;;;62.70;25.37;;;;;;;;;;5014942;28;20212;-73
2021/11/17 06:29:15;;;;;;;67.77;25.53;;;;;;;;;;5016774;28;20495;-73
2021/11/17 06:31:41;;;;;;;67.17;25.77;;;;;;;;;;5006404;28;20296;-72
2021/11/17 06:34:26;;;;;;;64.27;25.43;;;;;;;;;;5021045;28;20236;-72
2021/11/17 06:36:52;;;;;;;60.83;24.53;;;;;;;;;;5011465;28;20191;-72
2021/11/17 06:39:18;;;;;;;65.03;26.47;;;;;;;;;;5019748;28;20186;-72
2021/11/17 06:41:43;;;;;;;68.13;27.83;;;;;;;;;;5008108;28;20248;-72
2021/11/17 06:44:08;;;;;;;70.33;25.10;;;;;;;;;;5018747;28;20678;-73
2021/11/17 06:46:34;;;;;;;64.37;25.20;;;;;;;;;;5013156;28;20221;-72
2021/11/17 06:48:59;;;;;;;69.93;26.27;;;;;;;;;;5021269;28;20187;-72
2021/11/17 06:51:24;;;;;;;64.07;25.20;;;;;;;;;;5010965;28;20249;-72
2021/11/17 06:53:50;;;;;;;59.07;25.10;;;;;;;;;;5012157;28;20193;-72
2021/11/17 06:56:17;;;;;;;59.70;24.67;;;;;;;;;;5022892;28;20317;-72
2021/11/17 06:58:42;;;;;;;70.23;27.13;;;;;;;;;;5006566;28;20190;-73
2021/11/17 07:01:08;;;;;;;62.60;25.63;;;;;;;;;;5016461;28;20190;-73
2021/11/17 07:03:33;;;;;;;68.67;27.57;;;;;;;;;;5007541;28;20186;-73
2021/11/17 07:05:58;;;;;;;52.00;24.00;;;;;;;;;;5019597;28;20205;-72
2021/11/17 07:08:24;;;;;;;67.83;26.77;;;;;;;;;;5014596;28;20205;-72
2021/11/17 07:10:49;;;;;;;65.00;26.93;;;;;;;;;;5017453;28;20219;-73
2021/11/17 07:13:15;;;;;;;62.67;25.93;;;;;;;;;;5005884;28;20222;-73
2021/11/17 07:15:41;;;;;;;62.80;24.73;;;;;;;;;;5016603;28;20189;-73
2021/11/17 07:18:07;;;;;;;55.47;24.00;;;;;;;;;;5003656;28;20217;-73
2021/11/17 07:20:33;;;;;;;60.57;26.23;;;;;;;;;;5013627;28;20190;-73
2021/11/17 07:22:59;;;;;;;59.27;26.10;;;;;;;;;;5013090;28;20181;-73
2021/11/17 07:25:25;;;;;;;59.10;26.03;;;;;;;;;;5012452;28;20210;-72
2021/11/17 07:27:51;;;;;;;60.00;25.57;;;;;;;;;;5019841;28;20194;-72
2021/11/17 07:30:21;;;;;;;58.83;24.47;;;;;;;;;;5006391;28;20655;-71
2021/11/17 07:32:47;;;;;;;60.47;25.77;;;;;;;;;;5011026;28;20243;-72
2021/11/17 07:35:13;;;;;;;59.30;25.87;;;;;;;;;;5012948;28;20591;-72
2021/11/17 07:37:39;;;;;;;57.43;24.93;;;;;;;;;;5021191;28;20194;-73
2021/11/17 07:40:07;;;;;;;64.53;26.77;;;;;;;;;;5014291;28;20203;-72
2021/11/17 07:42:32;;;;;;;59.10;26.10;;;;;;;;;;5019894;28;20656;-71
2021/11/17 07:44:57;;;;;;;66.50;26.97;;;;;;;;;;5011090;28;20331;-72
2021/11/17 07:47:23;;;;;;;61.40;26.23;;;;;;;;;;5020271;28;20683;-71
2021/11/17 07:49:48;;;;;;;62.43;24.87;;;;;;;;;;5013065;28;20492;-71
2021/11/17 07:52:13;;;;;;;65.03;26.47;;;;;;;;;;5023564;28;20214;-72
2021/11/17 07:54:39;;;;;;;63.53;25.60;;;;;;;;;;5010499;28;20186;-72
2021/11/17 07:57:05;;;;;;;62.90;27.23;;;;;;;;;;5024733;28;20267;-72
2021/11/17 07:59:31;;;;;;;65.40;27.13;;;;;;;;;;5025703;28;20576;-72
2021/11/17 08:02:04;;;;;;;62.20;27.57;;;;;;;;;;5018747;28;20182;-72
2021/11/17 08:04:34;;;;;;;64.50;26.87;;;;;;;;;;5018592;28;20292;-72
2021/11/17 08:07:00;;;;;;;62.43;27.37;;;;;;;;;;5013561;28;20198;-72
2021/11/17 08:09:25;;;;;;;63.00;26.53;;;;;;;;;;5038386;28;20179;-72
2021/11/17 08:11:51;;;;;;;67.90;28.20;;;;;;;;;;5014629;28;20316;-72
2021/11/17 08:14:16;;;;;;;63.63;27.23;;;;;;;;;;5029181;28;20177;-72
2021/11/17 08:16:42;;;;;;;64.30;27.53;;;;;;;;;;5015291;28;20206;-72
2021/11/17 08:19:07;;;;;;;63.07;27.13;;;;;;;;;;5023658;28;20182;-73
2021/11/17 08:21:33;;;;;;;70.67;28.27;;;;;;;;;;5015257;28;20213;-73
2021/11/17 08:23:59;;;;;;;66.23;27.07;;;;;;;;;;5020957;28;20197;-73
2021/11/17 08:26:24;;;;;;;70.67;26.40;;;;;;;;;;5011719;28;20206;-73
2021/11/17 08:28:50;;;;;;;71.33;27.43;;;;;;;;;;5024735;28;20186;-73
2021/11/17 08:31:16;;;;;;;67.27;27.23;;;;;;;;;;5021079;28;20353;-72
2021/11/17 08:33:44;;;;;;;69.67;25.60;;;;;;;;;;5017460;28;20193;-72
2021/11/17 08:36:10;;;;;;;74.67;27.77;;;;;;;;;;5022980;28;20256;-72
2021/11/17 08:38:37;;;;;;;67.53;26.40;;;;;;;;;;5015819;28;20194;-72
2021/11/17 08:41:07;;;;;;;67.67;26.63;;;;;;;;;;5021658;28;20189;-73
2021/11/17 08:43:33;;;;;;;71.47;28.50;;;;;;;;;;5015571;28;20186;-73
2021/11/17 08:46:00;;;;;;;68.03;27.80;;;;;;;;;;5022433;28;20190;-73
2021/11/17 08:48:28;;;;;;;64.90;26.93;;;;;;;;;;5010149;28;20182;-72
2021/11/17 08:50:56;;;;;;;77.10;29.83;;;;;;;;;;5018624;28;20198;-73
2021/11/17 08:53:24;;;;;;;69.73;27.77;;;;;;;;;;5012867;28;20297;-72
2021/11/17 08:55:51;;;;;;;79.63;28.80;;;;;;;;;;5023196;28;20224;-73
2021/11/17 08:58:17;;;;;;;76.13;28.83;;;;;;;;;;5009189;28;20225;-73
2021/11/17 09:00:44;;;;;;;69.63;27.73;;;;;;;;;;5021429;28;20187;-72
2021/11/17 09:03:10;;;;;;;74.87;27.63;;;;;;;;;;5015143;28;20289;-73
2021/11/17 09:05:39;;;;;;;74.30;29.07;;;;;;;;;;5022264;28;20233;-73
2021/11/17 09:08:06;;;;;;;77.60;29.37;;;;;;;;;;5024968;28;20272;-73
2021/11/17 09:10:35;;;;;;;83.23;31.27;;;;;;;;;;5013050;28;20229;-73
2021/11/17 09:13:01;;;;;;;82.47;29.40;;;;;;;;;;5023886;28;20198;-72
2021/11/17 09:15:30;;;;;;;85.33;30.37;;;;;;;;;;5009500;28;20289;-72
2021/11/17 09:17:56;;;;;;;86.70;29.80;;;;;;;;;;5021292;28;20195;-73
2021/11/17 09:20:22;;;;;;;86.37;29.07;;;;;;;;;;5010183;28;20269;-73
2021/11/17 09:22:49;;;;;;;87.60;31.17;;;;;;;;;;5023272;28;20645;-73
2021/11/17 09:25:16;;;;;;;87.17;30.13;;;;;;;;;;5019764;28;20194;-72
2021/11/17 09:27:42;;;;;;;91.73;31.73;;;;;;;;;;5019184;28;20194;-73
2021/11/17 09:30:11;;;;;;;96.93;32.23;;;;;;;;;;5016286;28;20197;-73
2021/11/17 09:32:36;;;;;;;96.10;30.47;;;;;;;;;;5023785;28;20301;-73
2021/11/17 09:35:06;;;;;;;88.27;29.07;;;;;;;;;;5006292;28;20328;-73
2021/11/17 09:37:32;;;;;;;93.40;30.87;;;;;;;;;;5019835;28;20649;-74
2021/11/17 09:39:58;;;;;;;85.50;29.17;;;;;;;;;;5004773;28;20625;-73
2021/11/17 09:42:25;;;;;;;104.60;32.93;;;;;;;;;;5021897;28;20175;-73
2021/11/17 09:44:50;;;;;;;93.73;32.30;;;;;;;;;;5023175;28;20198;-72
2021/11/17 09:47:18;;;;;;;91.40;31.37;;;;;;;;;;5015897;28;20268;-73
2021/11/17 09:50:15;;;;;;;96.67;30.97;;;;;;;;;;5023541;28;20253;-72
2021/11/17 09:52:50;;;;;;;90.20;30.27;;;;;;;;;;4996722;28;20552;-73
2021/11/17 09:55:16;;;;;;;88.73;31.13;;;;;;;;;;5019755;28;20213;-73
2021/11/17 09:57:49;;;;;;;100.33;31.70;;;;;;;;;;5012242;28;20191;-72
2021/11/17 10:00:29;;;;;;;93.87;30.77;;;;;;;;;;5021148;28;20201;-73
2021/11/17 10:02:58;;;;;;;86.50;30.47;;;;;;;;;;5014586;28;20647;-72
2021/11/17 10:11:15;;;;;;;100.17;31.27;;;;;;;;;;5025131;28;20194;-72
2021/11/17 10:13:58;;;;;;;97.23;31.70;;;;;;;;;;5013516;28;20212;-73
2021/11/17 10:16:25;;;;;;;103.60;34.33;;;;;;;;;;5025045;28;20181;-73
2021/11/17 10:19:11;;;;;;;104.63;34.20;;;;;;;;;;5013716;28;20279;-74
2021/11/17 10:21:37;;;;;;;106.93;32.70;;;;;;;;;;5042299;28;20189;-74
2021/11/17 10:24:09;;;;;;;107.23;34.40;;;;;;;;;;5012178;28;20194;-74
2021/11/17 10:26:51;;;;;;;107.90;33.93;;;;;;;;;;5016443;28;20185;-75
2021/11/17 10:29:33;;;;;;;112.07;32.80;;;;;;;;;;5010936;28;20256;-73
2021/11/17 10:32:13;;;;;;;109.77;32.53;;;;;;;;;;5021420;28;20209;-73
2021/11/17 10:34:58;;;;;;;111.43;33.63;;;;;;;;;;5015108;28;20247;-73
2021/11/17 10:37:29;;;;;;;113.67;34.00;;;;;;;;;;5022966;28;20254;-73
2021/11/17 10:39:54;;;;;;;111.67;33.60;;;;;;;;;;5014247;28;20221;-73
2021/11/17 10:42:20;;;;;;;105.53;34.03;;;;;;;;;;5019971;28;20189;-74
2021/11/17 10:44:59;;;;;;;105.00;34.00;;;;;;;;;;5017293;28;20548;-74
2021/11/17 10:47:45;;;;;;;108.50;32.37;;;;;;;;;;5021435;28;20283;-73
2021/11/17 10:50:13;;;;;;;110.83;35.20;;;;;;;;;;5012311;28;20198;-73
2021/11/17 10:53:04;;;;;;;105.53;33.17;;;;;;;;;;5021625;28;20202;-73
2021/11/17 10:55:37;;;;;;;106.80;34.47;;;;;;;;;;5006299;28;20222;-73
2021/11/17 10:58:05;;;;;;;87.97;32.43;;;;;;;;;;5015096;28;20549;-74
2021/11/17 11:00:40;;;;;;;98.40;32.70;;;;;;;;;;5010184;28;20209;-74
2021/11/17 11:03:08;;;;;;;111.82;33.45;;;;;;;;;;5019230;28;20190;-73
2021/11/17 11:05:43;;;;;;;95.00;31.95;;;;;;;;;;5008962;28;20226;-73
2021/11/17 11:08:16;;;;;;;83.25;30.80;;;;;;;;;;5019555;28;20255;-73
2021/11/17 11:10:58;;;;;;;95.88;30.75;;;;;;;;;;5017295;28;20213;-72
2021/11/17 11:13:32;;;;;;;82.85;30.55;;;;;;;;;;5027152;28;20219;-73
2021/11/17 11:16:07;;;;;;;76.22;29.27;;;;;;;;;;5017107;28;20276;-73
2021/11/17 11:18:49;;;;;;;76.60;27.90;;;;;;;;;;5029357;28;20193;-73
2021/11/17 11:21:18;;;;;;;80.68;28.83;;;;;;;;;;5016694;28;20194;-74
2021/11/17 11:24:28;;;;;;;85.93;30.42;;;;;;;;;;5032319;28;20190;-73
2021/11/17 11:27:00;;;;;;;73.68;28.27;;;;;;;;;;5006759;28;20195;-73
2021/11/17 11:29:29;;;;;;;76.57;29.20;;;;;;;;;;5024787;28;20281;-72
2021/11/17 11:32:02;;;;;;;78.00;28.50;;;;;;;;;;5010248;28;20284;-73
2021/11/17 11:34:35;;;;;;;83.80;29.15;;;;;;;;;;5027022;28;20193;-73
2021/11/17 11:37:04;;;;;;;77.95;29.15;;;;;;;;;;5013408;28;20562;-73
2021/11/17 11:39:36;;;;;;;75.22;28.20;;;;;;;;;;5022853;28;20614;-72
2021/11/17 11:42:16;;;;;;;76.70;27.80;;;;;;;;;;5021203;28;20194;-72
2021/11/17 11:44:48;;;;;;;69.47;27.13;;;;;;;;;;5022303;28;20269;-72
2021/11/17 11:47:13;;;;;;;69.38;26.92;;;;;;;;;;5009031;28;20197;-72
2021/11/17 11:49:44;;;;;;;67.65;26.83;;;;;;;;;;5022669;28;20182;-72
2021/11/17 11:52:19;;;;;;;69.97;28.58;;;;;;;;;;5010577;28;20637;-72
2021/11/17 11:55:11;;;;;;;77.53;27.65;;;;;;;;;;5024967;28;20177;-71
2021/11/17 11:57:48;;;;;;;72.35;28.60;;;;;;;;;;5016139;28;20380;-72
2021/11/17 12:00:35;;;;;;;69.63;27.77;;;;;;;;;;5013024;28;20598;-72
2021/11/17 12:03:06;;;;;;;75.20;27.70;;;;;;;;;;5015388;28;20190;-72
2021/11/17 12:05:38;;;;;;;66.43;27.30;;;;;;;;;;5015634;28;20629;-72
2021/11/17 12:08:20;;;;;;;66.78;25.80;;;;;;;;;;5015620;28;20193;-73
2021/11/17 12:10:51;;;;;;;67.30;26.80;;;;;;;;;;5026418;28;20554;-71
2021/11/17 12:13:22;;;;;;;73.82;27.95;;;;;;;;;;5016843;28;20236;-71
2021/11/17 12:16:19;;;;;;;67.13;26.67;;;;;;;;;;5024268;28;20190;-72
2021/11/17 12:18:44;;;;;;;77.63;27.83;;;;;;;;;;5016881;28;20677;-71
2021/11/17 12:21:14;;;;;;;73.25;27.38;;;;;;;;;;5023307;28;20212;-72
2021/11/17 12:23:42;;;;;;;68.70;27.10;;;;;;;;;;5014600;28;20189;-72
2021/11/17 12:26:16;;;;;;;72.75;25.20;;;;;;;;;;5022953;28;20240;-72
2021/11/17 12:28:57;;;;;;;62.72;26.05;;;;;;;;;;5015803;28;20668;-72
2021/11/17 12:31:26;;;;;;;60.92;24.33;;;;;;;;;;5024916;28;20209;-71
2021/11/17 12:34:00;;;;;;;58.05;24.50;;;;;;;;;;5009545;28;20197;-73
2021/11/17 12:36:46;;;;;;;61.47;25.35;;;;;;;;;;5021662;28;20187;-72
2021/11/17 12:39:17;;;;;;;65.00;26.85;;;;;;;;;;5010249;28;20190;-72
2021/11/17 12:41:43;;;;;;;57.65;24.42;;;;;;;;;;5020296;28;20186;-73
2021/11/17 12:44:31;;;;;;;57.45;25.30;;;;;;;;;;5015471;28;20622;-72
2021/11/17 12:47:13;;;;;;;60.50;25.05;;;;;;;;;;5027232;28;20563;-72
2021/11/17 12:49:44;;;;;;;60.35;24.70;;;;;;;;;;5014924;28;20225;-72
2021/11/17 12:52:15;;;;;;;56.90;24.35;;;;;;;;;;5022652;28;20244;-72
2021/11/17 12:54:59;;;;;;;56.38;22.52;;;;;;;;;;5016238;28;20178;-72
2021/11/17 12:57:38;;;;;;;54.42;23.58;;;;;;;;;;5021903;28;20312;-72
2021/11/17 13:00:12;;;;;;;63.42;23.58;;;;;;;;;;5019937;28;20529;-72
2021/11/17 13:02:46;;;;;;;47.40;21.55;;;;;;;;;;5022499;28;20180;-72
2021/11/17 13:05:28;;;;;;;53.78;21.55;;;;;;;;;;5016143;28;21079;-73
2021/11/17 13:08:18;;;;;;;51.08;21.65;;;;;;;;;;5022462;28;20179;-73
2021/11/17 13:10:47;;;;;;;54.17;21.65;;;;;;;;;;5017713;28;21427;-73
2021/11/17 13:13:42;;;;;;;50.42;21.27;;;;;;;;;;5016352;28;20541;-73
2021/11/17 13:16:32;;;;;;;52.00;19.65;;;;;;;;;;5013927;28;20246;-73
2021/11/17 13:19:04;;;;;;;46.03;19.42;;;;;;;;;;5017856;28;20263;-73
2021/11/17 13:21:39;;;;;;;53.22;19.65;;;;;;;;;;5016318;28;20182;-73
2021/11/17 13:24:07;;;;;;;47.90;19.77;;;;;;;;;;5017463;28;20263;-72
2021/11/17 13:26:45;;;;;;;49.78;20.33;;;;;;;;;;5016215;28;20540;-73
2021/11/17 13:29:49;;;;;;;45.53;18.38;;;;;;;;;;5021456;28;20305;-73
2021/11/17 13:32:14;;;;;;;40.80;17.27;;;;;;;;;;5001962;28;20217;-73
2021/11/17 13:34:46;;;;;;;34.05;13.40;;;;;;;;;;5026456;28;20297;-72
2021/11/17 13:37:15;;;;;;;25.55;10.15;;;;;;;;;;5018226;28;20183;-74
2021/11/17 13:39:40;;;;;;;21.73;9.13;;;;;;;;;;5025189;28;20186;-73
2021/11/17 13:42:05;;;;;;;29.33;7.65;;;;;;;;;;5026322;28;20648;-73
2021/11/17 13:44:31;;;;;;;20.17;5.40;;;;;;;;;;5013352;28;20182;-73
2021/11/17 13:47:28;;;;;;;20.88;5.03;;;;;;;;;;5020587;28;20179;-73
2021/11/17 13:49:56;;;;;;;19.75;4.43;;;;;;;;;;5011755;28;20205;-73
2021/11/17 13:52:24;;;;;;;14.70;3.38;;;;;;;;;;5026420;28;20206;-73
2021/11/17 13:54:51;;;;;;;17.92;3.40;;;;;;;;;;5014507;28;20202;-74
2021/11/17 13:57:18;;;;;;;16.40;3.83;;;;;;;;;;5019047;28;20198;-74
2021/11/17 13:59:44;;;;;;;24.40;4.50;;;;;;;;;;5007236;28;20556;-74
2021/11/17 14:02:10;;;;;;;17.17;3.30;;;;;;;;;;5015485;28;20531;-74
2021/11/17 14:04:36;;;;;;;21.63;4.38;;;;;;;;;;5017060;28;20230;-73
2021/11/17 14:07:02;;;;;;;21.08;3.92;;;;;;;;;;5021674;28;20628;-73
2021/11/17 14:09:28;;;;;;;12.93;2.60;;;;;;;;;;5014639;28;20186;-73
2021/11/17 14:11:56;;;;;;;22.13;3.22;;;;;;;;;;5018828;28;20202;-73
2021/11/17 14:14:21;;;;;;;16.92;2.97;;;;;;;;;;5011123;28;20190;-73
2021/11/17 14:16:47;;;;;;;15.00;2.80;;;;;;;;;;5018591;28;20232;-74
2021/11/17 14:19:13;;;;;;;12.63;3.15;;;;;;;;;;5013383;28;20253;-73
2021/11/17 14:21:39;;;;;;;13.13;2.78;;;;;;;;;;5016017;28;20509;-76
2021/11/17 14:24:05;;;;;;;18.10;3.35;;;;;;;;;;5020014;28;20194;-74
2021/11/17 14:26:32;;;;;;;15.48;3.75;;;;;;;;;;5012411;28;20637;-74
2021/11/17 14:29:07;;;;;;;16.30;3.22;;;;;;;;;;5018380;28;20488;-73
2021/11/17 14:31:52;;;;;;;15.85;3.00;;;;;;;;;;5009825;28;20198;-73
2021/11/17 14:34:18;;;;;;;19.48;3.15;;;;;;;;;;5023607;28;20179;-73
2021/11/17 14:36:49;;;;;;;25.13;4.00;;;;;;;;;;5014315;28;20186;-73
2021/11/17 14:39:16;;;;;;;14.85;2.80;;;;;;;;;;5018762;28;20190;-73
2021/11/17 14:41:42;;;;;;;14.68;2.78;;;;;;;;;;5015540;28;20273;-73
2021/11/17 14:44:07;;;;;;;10.60;2.50;;;;;;;;;;5019674;28;20281;-73
2021/11/17 14:46:34;;;;;;;12.55;2.50;;;;;;;;;;5033732;28;20192;-73
2021/11/17 14:48:59;;;;;;;13.43;2.58;;;;;;;;;;5019043;28;20689;-73
2021/11/17 14:51:25;;;;;;;14.65;2.45;;;;;;;;;;5017787;28;20205;-72
2021/11/17 14:53:51;;;;;;;16.67;3.20;;;;;;;;;;5023992;28;20235;-72
2021/11/17 14:56:18;;;;;;;14.27;2.70;;;;;;;;;;5016208;28;20207;-72
2021/11/17 14:58:44;;;;;;;18.15;2.40;;;;;;;;;;4329647;28;10000814;-73
2021/11/17 15:01:17;;;;;;;15.63;2.67;;;;;;;;;;5020383;28;20190;-72
2021/11/17 15:03:43;;;;;;;15.40;2.30;;;;;;;;;;5020229;28;20265;-72
2021/11/17 15:06:10;;;;;;;16.70;2.97;;;;;;;;;;5018257;28;20182;-73
2021/11/17 15:08:36;;;;;;;8.80;2.25;;;;;;;;;;5014009;28;20202;-72
2021/11/17 15:11:01;;;;;;;345.27;67.30;;;;;;;;;;5025933;28;20288;-72
2021/11/17 15:13:27;;;;;;;19.88;4.57;;;;;;;;;;5012415;28;20240;-72
2021/11/17 15:15:56;;;;;;;14.90;2.63;;;;;;;;;;5025190;28;20540;-72
2021/11/17 15:18:22;;;;;;;12.07;2.25;;;;;;;;;;5015530;28;20518;-73
2021/11/17 15:20:49;;;;;;;12.05;1.90;;;;;;;;;;5025801;28;20178;-72
2021/11/17 15:23:16;;;;;;;14.88;2.38;;;;;;;;;;5013379;28;20232;-72
2021/11/17 15:25:44;;;;;;;10.23;2.28;;;;;;;;;;5016885;28;20182;-72
2021/11/17 15:28:32;;;;;;;18.42;2.67;;;;;;;;;;5013199;28;20287;-70
2021/11/17 15:31:03;;;;;;;13.65;2.28;;;;;;;;;;5021406;28;20535;-72
2021/11/17 15:33:29;;;;;;;14.50;1.92;;;;;;;;;;5010976;28;20941;-72
2021/11/17 15:35:54;;;;;;;11.90;1.90;;;;;;;;;;5019502;28;20225;-72
2021/11/17 15:38:21;;;;;;;9.98;1.75;;;;;;;;;;5010404;28;20201;-72
2021/11/17 15:40:51;;;;;;;44.78;6.97;;;;;;;;;;5022616;28;20277;-72
2021/11/17 15:43:18;;;;;;;13.05;2.10;;;;;;;;;;5019237;28;20186;-72
2021/11/17 15:45:43;;;;;;;11.25;2.03;;;;;;;;;;5018676;28;20186;-72
2021/11/17 15:48:10;;;;;;;12.50;1.88;;;;;;;;;;5018998;28;20194;-72
2021/11/17 15:50:40;;;;;;;7.63;2.13;;;;;;;;;;5014695;28;20189;-73
2021/11/17 15:53:06;;;;;;;17.50;2.72;;;;;;;;;;5009707;28;21136;-72
2021/11/17 15:55:32;;;;;;;14.95;3.05;;;;;;;;;;5013431;28;20214;-72
2021/11/17 15:57:58;;;;;;;16.25;3.47;;;;;;;;;;5020979;28;20186;-72
2021/11/17 16:00:26;;;;;;;16.45;4.07;;;;;;;;;;5009851;28;20186;-72
2021/11/17 16:02:52;;;;;;;16.08;3.20;;;;;;;;;;5014711;28;20229;-73
2021/11/17 16:05:18;;;;;;;12.75;3.50;;;;;;;;;;5009931;28;20253;-72
2021/11/17 16:07:44;;;;;;;9.98;2.70;;;;;;;;;;5022368;28;20195;-73
2021/11/17 16:10:12;;;;;;;12.90;2.80;;;;;;;;;;5015776;28;20216;-72
2021/11/17 16:12:38;;;;;;;11.80;2.53;;;;;;;;;;5020380;28;20214;-73
2021/11/17 16:15:06;;;;;;;12.18;3.85;;;;;;;;;;5009311;28;20317;-72
2021/11/17 16:17:35;;;;;;;14.65;4.05;;;;;;;;;;5020704;28;20571;-73
2021/11/17 16:20:03;;;;;;;15.38;3.30;;;;;;;;;;5019899;28;20230;-74
2021/11/17 16:22:34;;;;;;;12.95;3.17;;;;;;;;;;5011120;28;20456;-73
2021/11/17 16:27:47;;;;;;;16.48;3.65;;;;;;;;;;5015136;28;20200;-73
2021/11/17 16:30:15;;;;;;;14.10;3.40;;;;;;;;;;5017778;28;20186;-73
2021/11/17 16:32:41;;;;;;;12.93;3.55;;;;;;;;;;5009406;28;20218;-73
2021/11/17 16:35:09;;;;;;;14.88;3.20;;;;;;;;;;5015788;28;20182;-73
2021/11/17 16:37:35;;;;;;;12.48;2.90;;;;;;;;;;5009963;28;20218;-73
2021/11/17 16:40:00;;;;;;;11.82;2.35;;;;;;;;;;5019511;28;20661;-73
2021/11/17 16:42:26;;;;;;;13.15;2.85;;;;;;;;;;5012801;28;20214;-73
2021/11/17 16:44:52;;;;;;;12.97;2.80;;;;;;;;;;5018342;28;20208;-73
2021/11/17 16:47:18;;;;;;;17.88;2.88;;;;;;;;;;5007722;28;20217;-73
2021/11/17 16:49:45;;;;;;;15.18;2.83;;;;;;;;;;5016246;28;20209;-71
2021/11/17 16:52:14;;;;;;;11.20;2.97;;;;;;;;;;5004800;28;20826;-74
2021/11/17 16:54:44;;;;;;;11.18;3.30;;;;;;;;;;5011658;28;20540;-73
2021/11/17 16:57:10;;;;;;;14.60;3.25;;;;;;;;;;5014133;28;20225;-73
2021/11/17 16:59:37;;;;;;;15.60;2.97;;;;;;;;;;5011958;28;20261;-73
2021/11/17 17:02:03;;;;;;;14.60;3.65;;;;;;;;;;4671140;28;9999703;-73
2021/11/17 17:04:29;;;;;;;18.85;5.25;;;;;;;;;;5014461;28;20240;-72
2021/11/17 17:06:54;;;;;;;14.98;3.95;;;;;;;;;;5020675;28;20613;-73
2021/11/17 17:09:20;;;;;;;18.57;4.40;;;;;;;;;;5005118;28;20194;-73
2021/11/17 17:11:45;;;;;;;13.33;3.43;;;;;;;;;;5021715;28;20822;-73
2021/11/17 17:14:11;;;;;;;19.47;3.80;;;;;;;;;;5009902;28;20249;-73
2021/11/17 17:16:37;;;;;;;12.65;2.85;;;;;;;;;;5020804;28;20214;-73
2021/11/17 17:19:02;;;;;;;18.03;3.17;;;;;;;;;;5005689;28;20190;-73
2021/11/17 17:21:28;;;;;;;15.20;3.87;;;;;;;;;;5020217;28;20823;-73
2021/11/17 17:23:54;;;;;;;20.70;3.73;;;;;;;;;;5008192;28;20225;-73
2021/11/17 17:26:22;;;;;;;14.60;4.20;;;;;;;;;;5016513;28;21661;-72
2021/11/17 17:28:49;;;;;;;16.13;3.43;;;;;;;;;;5014431;28;20517;-73
2021/11/17 17:31:17;;;;;;;15.35;3.75;;;;;;;;;;5013067;28;20325;-73